sensor_id;sensor_type;location;lat;lon;timestamp;pressure;altitude;pressure_sealevel;temperature;humidity
44027;BME280;29696;55.698;37.460;2023-04-08T00:00:57;100589.66;;;4.58;41.55
44027;BME280;29696;55.698;37.460;2023-04-08T00:03:23;100594.19;;;4.55;42.00
44027;BME280;29696;55.698;37.460;2023-04-08T00:05:49;100595.31;;;4.49;42.33
44027;BME280;29696;55.698;37.460;2023-04-08T00:08:16;100593.69;;;4.47;41.93
44027;BME280;29696;55.698;37.460;2023-04-08T00:10:42;100598.16;;;4.45;42.20
44027;BME280;29696;55.698;37.460;2023-04-08T00:13:08;100595.66;;;4.42;42.30
44027;BME280;29696;55.698;37.460;2023-04-08T00:15:35;100593.16;;;4.40;42.61
44027;BME280;29696;55.698;37.460;2023-04-08T00:18:02;100593.16;;;4.40;42.61
44027;BME280;29696;55.698;37.460;2023-04-08T00:20:28;100588.75;;;4.41;43.09
44027;BME280;29696;55.698;37.460;2023-04-08T00:22:54;100596.47;;;4.44;42.59
44027;BME280;29696;55.698;37.460;2023-04-08T00:25:21;100593.91;;;4.42;42.96
44027;BME280;29696;55.698;37.460;2023-04-08T00:27:47;100589.88;;;4.35;43.35
44027;BME280;29696;55.698;37.460;2023-04-08T00:30:13;100602.03;;;4.36;43.07
44027;BME280;29696;55.698;37.460;2023-04-08T00:32:40;100591.66;;;4.34;43.44
44027;BME280;29696;55.698;37.460;2023-04-08T00:35:07;100592.63;;;4.32;43.18
44027;BME280;29696;55.698;37.460;2023-04-08T00:37:33;100591.78;;;4.31;43.58
44027;BME280;29696;55.698;37.460;2023-04-08T00:40:00;100589.53;;;4.24;43.93
44027;BME280;29696;55.698;37.460;2023-04-08T00:42:26;100595.75;;;4.21;43.92
44027;BME280;29696;55.698;37.460;2023-04-08T00:44:53;100595.03;;;4.18;43.57
44027;BME280;29696;55.698;37.460;2023-04-08T00:47:20;100589.88;;;4.16;43.93
44027;BME280;29696;55.698;37.460;2023-04-08T00:49:46;100593.41;;;4.15;44.13
44027;BME280;29696;55.698;37.460;2023-04-08T00:52:13;100590.31;;;4.07;44.08
44027;BME280;29696;55.698;37.460;2023-04-08T00:54:40;100602.47;;;4.08;44.21
44027;BME280;29696;55.698;37.460;2023-04-08T00:57:07;100595.72;;;4.02;44.41
44027;BME280;29696;55.698;37.460;2023-04-08T00:59:34;100599.28;;;4.01;44.73
44027;BME280;29696;55.698;37.460;2023-04-08T01:06:17;100598.34;;;4.02;44.71
44027;BME280;29696;55.698;37.460;2023-04-08T01:08:37;100600.44;;;3.94;45.09
44027;BME280;29696;55.698;37.460;2023-04-08T01:11:08;100599.75;;;3.91;45.18
44027;BME280;29696;55.698;37.460;2023-04-08T01:13:39;100596.28;;;3.90;45.05
44027;BME280;29696;55.698;37.460;2023-04-08T01:16:12;100591.09;;;3.88;45.06
44027;BME280;29696;55.698;37.460;2023-04-08T01:18:42;100595.50;;;3.88;45.14
44027;BME280;29696;55.698;37.460;2023-04-08T01:21:10;100596.41;;;3.87;45.23
44027;BME280;29696;55.698;37.460;2023-04-08T01:26:28;100598.59;;;3.77;45.23
44027;BME280;29696;55.698;37.460;2023-04-08T01:28:57;100590.75;;;3.77;45.49
44027;BME280;29696;55.698;37.460;2023-04-08T01:31:25;100590.88;;;3.74;45.34
44027;BME280;29696;55.698;37.460;2023-04-08T01:33:52;100600.47;;;3.74;45.39
44027;BME280;29696;55.698;37.460;2023-04-08T01:36:22;100602.31;;;3.72;45.39
44027;BME280;29696;55.698;37.460;2023-04-08T01:38:49;100593.69;;;3.70;45.62
44027;BME280;29696;55.698;37.460;2023-04-08T01:41:17;100600.75;;;3.67;45.66
44027;BME280;29696;55.698;37.460;2023-04-08T01:43:44;100593.81;;;3.66;46.04
44027;BME280;29696;55.698;37.460;2023-04-08T01:46:12;100600.97;;;3.63;46.13
44027;BME280;29696;55.698;37.460;2023-04-08T01:48:39;100597.56;;;3.61;45.97
44027;BME280;29696;55.698;37.460;2023-04-08T01:51:06;100598.47;;;3.60;46.39
44027;BME280;29696;55.698;37.460;2023-04-08T01:53:35;100609.91;;;3.57;46.31
44027;BME280;29696;55.698;37.460;2023-04-08T01:56:08;100598.59;;;3.57;46.55
44027;BME280;29696;55.698;37.460;2023-04-08T01:58:46;100603.03;;;3.55;46.71
44027;BME280;29696;55.698;37.460;2023-04-08T02:01:16;100609.31;;;3.51;46.30
44027;BME280;29696;55.698;37.460;2023-04-08T02:03:45;100609.50;;;3.46;46.89
44027;BME280;29696;55.698;37.460;2023-04-08T02:06:13;100601.81;;;3.43;46.98
44027;BME280;29696;55.698;37.460;2023-04-08T02:08:39;100599.41;;;3.38;47.07
44027;BME280;29696;55.698;37.460;2023-04-08T02:11:05;100607.16;;;3.40;46.88
44027;BME280;29696;55.698;37.460;2023-04-08T02:13:32;100600.41;;;3.34;47.08
44027;BME280;29696;55.698;37.460;2023-04-08T02:16:22;100611.53;;;3.39;47.21
44027;BME280;29696;55.698;37.460;2023-04-08T02:18:59;100602.78;;;3.40;47.03
44027;BME280;29696;55.698;37.460;2023-04-08T02:21:33;100604.81;;;3.34;47.44
44027;BME280;29696;55.698;37.460;2023-04-08T02:24:04;100602.31;;;3.31;47.74
44027;BME280;29696;55.698;37.460;2023-04-08T02:26:33;100605.84;;;3.30;48.17
44027;BME280;29696;55.698;37.460;2023-04-08T02:29:02;100602.44;;;3.28;48.16
44027;BME280;29696;55.698;37.460;2023-04-08T02:31:32;100608.78;;;3.22;48.16
44027;BME280;29696;55.698;37.460;2023-04-08T02:33:59;100601.16;;;3.17;48.49
44027;BME280;29696;55.698;37.460;2023-04-08T02:36:30;100609.75;;;3.19;48.58
44027;BME280;29696;55.698;37.460;2023-04-08T02:39:04;100618.38;;;3.22;48.41
44027;BME280;29696;55.698;37.460;2023-04-08T02:41:30;100613.41;;;3.15;48.43
44027;BME280;29696;55.698;37.460;2023-04-08T02:43:57;100620.16;;;3.21;48.79
44027;BME280;29696;55.698;37.460;2023-04-08T02:46:23;100614.06;;;3.20;48.50
44027;BME280;29696;55.698;37.460;2023-04-08T02:48:50;100613.19;;;3.20;48.24
44027;BME280;29696;55.698;37.460;2023-04-08T02:51:16;100614.06;;;3.20;48.41
44027;BME280;29696;55.698;37.460;2023-04-08T02:53:43;100616.69;;;3.20;48.73
44027;BME280;29696;55.698;37.460;2023-04-08T02:56:09;100608.91;;;3.19;48.68
44027;BME280;29696;55.698;37.460;2023-04-08T02:58:36;100612.34;;;3.19;48.75
44027;BME280;29696;55.698;37.460;2023-04-08T03:01:04;100615.72;;;3.23;48.65
44027;BME280;29696;55.698;37.460;2023-04-08T03:03:30;100614.84;;;3.23;48.52
44027;BME280;29696;55.698;37.460;2023-04-08T03:05:57;100618.13;;;3.28;48.64
44027;BME280;29696;55.698;37.460;2023-04-08T03:08:23;100619.03;;;3.27;49.15
44027;BME280;29696;55.698;37.460;2023-04-08T03:10:51;100615.47;;;3.29;48.83
44027;BME280;29696;55.698;37.460;2023-04-08T03:13:17;100613.63;;;3.31;49.22
44027;BME280;29696;55.698;37.460;2023-04-08T03:15:43;100622.00;;;3.39;48.81
44027;BME280;29696;55.698;37.460;2023-04-08T03:18:10;100626.78;;;3.50;48.81
44027;BME280;29696;55.698;37.460;2023-04-08T03:20:36;100623.16;;;4.12;48.08
44027;BME280;29696;55.698;37.460;2023-04-08T03:23:03;100617.22;;;4.85;45.83
44027;BME280;29696;55.698;37.460;2023-04-08T03:25:29;100624.94;;;4.69;45.52
44027;BME280;29696;55.698;37.460;2023-04-08T03:27:57;100621.50;;;4.49;46.12
44027;BME280;29696;55.698;37.460;2023-04-08T03:30:23;100621.16;;;4.38;46.62
44027;BME280;29696;55.698;37.460;2023-04-08T03:32:49;100621.28;;;4.35;46.92
44027;BME280;29696;55.698;37.460;2023-04-08T03:35:16;100630.22;;;4.31;46.49
44027;BME280;29696;55.698;37.460;2023-04-08T03:37:42;100624.41;;;4.98;45.54
44027;BME280;29696;55.698;37.460;2023-04-08T03:40:09;100622.19;;;6.28;43.35
44027;BME280;29696;55.698;37.460;2023-04-08T03:42:35;100623.25;;;7.19;41.08
44027;BME280;29696;55.698;37.460;2023-04-08T03:45:02;100612.88;;;7.91;39.61
44027;BME280;29696;55.698;37.460;2023-04-08T03:47:29;100611.88;;;8.78;37.69
44027;BME280;29696;55.698;37.460;2023-04-08T03:49:55;100617.53;;;9.26;36.24
44027;BME280;29696;55.698;37.460;2023-04-08T03:52:23;100625.72;;;8.67;37.01
44027;BME280;29696;55.698;37.460;2023-04-08T03:54:50;100621.91;;;7.87;37.91
44027;BME280;29696;55.698;37.460;2023-04-08T03:57:16;100619.47;;;7.39;39.11
44027;BME280;29696;55.698;37.460;2023-04-08T03:59:42;100621.91;;;7.42;39.59
44027;BME280;29696;55.698;37.460;2023-04-08T04:02:09;100615.72;;;8.86;37.39
44027;BME280;29696;55.698;37.460;2023-04-08T04:04:35;100619.84;;;10.09;34.75
44027;BME280;29696;55.698;37.460;2023-04-08T04:07:02;100625.88;;;10.97;33.39
44027;BME280;29696;55.698;37.460;2023-04-08T04:09:28;100624.13;;;11.79;31.93
44027;BME280;29696;55.698;37.460;2023-04-08T04:11:54;100615.63;;;12.54;30.32
44027;BME280;29696;55.698;37.460;2023-04-08T04:14:21;100624.44;;;13.31;29.42
44027;BME280;29696;55.698;37.460;2023-04-08T04:16:47;100619.03;;;13.95;28.34
44027;BME280;29696;55.698;37.460;2023-04-08T04:19:13;100625.13;;;14.47;27.45
44027;BME280;29696;55.698;37.460;2023-04-08T04:21:40;100623.69;;;14.83;27.43
44027;BME280;29696;55.698;37.460;2023-04-08T04:24:06;100631.44;;;15.06;26.17
44027;BME280;29696;55.698;37.460;2023-04-08T04:26:33;100626.41;;;15.71;25.71
44027;BME280;29696;55.698;37.460;2023-04-08T04:28:59;100621.63;;;15.55;25.79
44027;BME280;29696;55.698;37.460;2023-04-08T04:31:25;100624.69;;;15.60;26.04
44027;BME280;29696;55.698;37.460;2023-04-08T04:33:52;100625.19;;;16.03;25.24
44027;BME280;29696;55.698;37.460;2023-04-08T04:36:18;100619.28;;;16.09;25.16
44027;BME280;29696;55.698;37.460;2023-04-08T04:38:45;100626.34;;;16.37;24.74
44027;BME280;29696;55.698;37.460;2023-04-08T04:41:11;100617.25;;;16.85;24.03
44027;BME280;29696;55.698;37.460;2023-04-08T04:43:37;100625.63;;;17.62;23.57
44027;BME280;29696;55.698;37.460;2023-04-08T04:46:04;100626.88;;;18.62;22.49
44027;BME280;29696;55.698;37.460;2023-04-08T04:48:34;100632.75;;;19.82;21.29
44027;BME280;29696;55.698;37.460;2023-04-08T04:51:01;100631.28;;;20.74;20.40
44027;BME280;29696;55.698;37.460;2023-04-08T04:53:29;100626.28;;;21.49;19.76
44027;BME280;29696;55.698;37.460;2023-04-08T04:55:55;100630.56;;;21.81;18.99
44027;BME280;29696;55.698;37.460;2023-04-08T04:58:22;100634.34;;;22.01;18.78
44027;BME280;29696;55.698;37.460;2023-04-08T05:00:48;100633.28;;;22.25;18.49
44027;BME280;29696;55.698;37.460;2023-04-08T05:03:14;100635.94;;;22.70;18.46
44027;BME280;29696;55.698;37.460;2023-04-08T05:05:41;100630.88;;;22.45;17.86
44027;BME280;29696;55.698;37.460;2023-04-08T05:08:07;100629.47;;;22.34;18.30
44027;BME280;29696;55.698;37.460;2023-04-08T05:10:33;100642.22;;;22.41;18.03
44027;BME280;29696;55.698;37.460;2023-04-08T05:13:00;100631.22;;;22.57;18.38
44027;BME280;29696;55.698;37.460;2023-04-08T05:15:26;100639.94;;;23.53;17.17
44027;BME280;29696;55.698;37.460;2023-04-08T05:17:52;100641.53;;;24.60;16.77
44027;BME280;29696;55.698;37.460;2023-04-08T05:20:19;100651.81;;;24.43;16.48
44027;BME280;29696;55.698;37.460;2023-04-08T05:22:45;100648.31;;;23.86;16.50
44027;BME280;29696;55.698;37.460;2023-04-08T05:25:12;100652.66;;;23.59;16.80
44027;BME280;29696;55.698;37.460;2023-04-08T05:27:38;100650.69;;;24.31;16.79
44027;BME280;29696;55.698;37.460;2023-04-08T05:30:06;100653.53;;;24.51;16.58
44027;BME280;29696;55.698;37.460;2023-04-08T05:32:33;100648.25;;;24.77;15.88
44027;BME280;29696;55.698;37.460;2023-04-08T05:35:02;100657.25;;;24.98;16.36
44027;BME280;29696;55.698;37.460;2023-04-08T05:37:29;100652.38;;;25.28;15.65
44027;BME280;29696;55.698;37.460;2023-04-08T05:39:56;100653.53;;;23.88;16.55
44027;BME280;29696;55.698;37.460;2023-04-08T05:42:22;100654.63;;;24.28;16.79
44027;BME280;29696;55.698;37.460;2023-04-08T05:44:49;100659.47;;;24.40;16.62
44027;BME280;29696;55.698;37.460;2023-04-08T05:47:15;100652.56;;;24.30;16.36
44027;BME280;29696;55.698;37.460;2023-04-08T05:49:41;100654.53;;;23.87;16.87
44027;BME280;29696;55.698;37.460;2023-04-08T05:52:08;100664.34;;;23.66;17.28
44027;BME280;29696;55.698;37.460;2023-04-08T05:54:34;100663.25;;;23.82;17.02
44027;BME280;29696;55.698;37.460;2023-04-08T05:57:01;100658.44;;;23.56;17.27
44027;BME280;29696;55.698;37.460;2023-04-08T05:59:27;100658.25;;;24.83;16.46
44027;BME280;29696;55.698;37.460;2023-04-08T06:01:53;100658.81;;;25.54;16.02
44027;BME280;29696;55.698;37.460;2023-04-08T06:04:20;100661.53;;;25.73;15.41
44027;BME280;29696;55.698;37.460;2023-04-08T06:06:46;100656.13;;;26.13;15.22
44027;BME280;29696;55.698;37.460;2023-04-08T06:09:13;100657.16;;;26.19;15.32
44027;BME280;29696;55.698;37.460;2023-04-08T06:11:39;100655.72;;;25.77;15.90
44027;BME280;29696;55.698;37.460;2023-04-08T06:14:05;100659.72;;;27.17;14.80
44027;BME280;29696;55.698;37.460;2023-04-08T06:16:32;100659.91;;;27.22;14.74
44027;BME280;29696;55.698;37.460;2023-04-08T06:18:58;100655.00;;;27.63;14.12
44027;BME280;29696;55.698;37.460;2023-04-08T06:21:25;100660.03;;;27.59;14.42
44027;BME280;29696;55.698;37.460;2023-04-08T06:23:51;100660.34;;;27.19;14.38
44027;BME280;29696;55.698;37.460;2023-04-08T06:26:17;100660.69;;;27.86;14.12
44027;BME280;29696;55.698;37.460;2023-04-08T06:28:44;100656.19;;;28.42;13.84
44027;BME280;29696;55.698;37.460;2023-04-08T06:31:10;100648.50;;;29.18;13.06
44027;BME280;29696;55.698;37.460;2023-04-08T06:33:37;100656.81;;;29.34;13.27
44027;BME280;29696;55.698;37.460;2023-04-08T06:36:04;100656.94;;;29.28;12.89
44027;BME280;29696;55.698;37.460;2023-04-08T06:38:31;100661.72;;;28.84;13.29
44027;BME280;29696;55.698;37.460;2023-04-08T06:41:04;100655.59;;;28.88;13.34
44027;BME280;29696;55.698;37.460;2023-04-08T06:43:31;100664.28;;;30.80;12.39
44027;BME280;29696;55.698;37.460;2023-04-08T06:45:58;100651.34;;;29.11;13.07
44027;BME280;29696;55.698;37.460;2023-04-08T06:48:24;100659.56;;;28.56;13.41
44027;BME280;29696;55.698;37.460;2023-04-08T06:50:56;100663.66;;;28.03;13.80
44027;BME280;29696;55.698;37.460;2023-04-08T06:53:23;100666.19;;;27.80;13.89
44027;BME280;29696;55.698;37.460;2023-04-08T06:55:49;100668.81;;;27.61;14.24
44027;BME280;29696;55.698;37.460;2023-04-08T06:58:16;100652.94;;;28.08;13.97
44027;BME280;29696;55.698;37.460;2023-04-08T07:00:43;100654.00;;;29.29;12.96
44027;BME280;29696;55.698;37.460;2023-04-08T07:03:09;100653.84;;;29.90;12.86
44027;BME280;29696;55.698;37.460;2023-04-08T07:05:38;100654.28;;;28.91;13.17
44027;BME280;29696;55.698;37.460;2023-04-08T07:08:07;100663.69;;;28.77;13.38
44027;BME280;29696;55.698;37.460;2023-04-08T07:10:34;100660.13;;;29.25;13.08
44027;BME280;29696;55.698;37.460;2023-04-08T07:13:01;100651.38;;;29.34;13.16
44027;BME280;29696;55.698;37.460;2023-04-08T07:15:28;100655.16;;;29.33;12.96
44027;BME280;29696;55.698;37.460;2023-04-08T07:17:54;100656.19;;;27.98;13.80
44027;BME280;29696;55.698;37.460;2023-04-08T07:20:25;100646.44;;;27.34;14.05
44027;BME280;29696;55.698;37.460;2023-04-08T07:22:51;100649.91;;;26.71;14.78
44027;BME280;29696;55.698;37.460;2023-04-08T07:25:17;100656.69;;;26.42;14.99
44027;BME280;29696;55.698;37.460;2023-04-08T07:27:44;100645.09;;;25.75;15.42
44027;BME280;29696;55.698;37.460;2023-04-08T07:30:10;100648.78;;;25.14;15.76
44027;BME280;29696;55.698;37.460;2023-04-08T07:32:37;100651.69;;;23.67;16.88
44027;BME280;29696;55.698;37.460;2023-04-08T07:35:04;100651.13;;;22.92;17.74
44027;BME280;29696;55.698;37.460;2023-04-08T07:37:31;100650.91;;;22.28;18.28
44027;BME280;29696;55.698;37.460;2023-04-08T07:39:57;100649.63;;;22.39;18.24
44027;BME280;29696;55.698;37.460;2023-04-08T07:42:24;100654.81;;;22.40;18.37
44027;BME280;29696;55.698;37.460;2023-04-08T07:44:50;100653.75;;;22.86;18.19
44027;BME280;29696;55.698;37.460;2023-04-08T07:47:17;100653.16;;;23.27;17.82
44027;BME280;29696;55.698;37.460;2023-04-08T07:49:45;100661.31;;;22.46;18.84
44027;BME280;29696;55.698;37.460;2023-04-08T07:52:12;100657.09;;;22.14;18.87
44027;BME280;29696;55.698;37.460;2023-04-08T07:54:38;100649.38;;;22.85;18.53
44027;BME280;29696;55.698;37.460;2023-04-08T07:57:04;100650.91;;;22.58;18.51
44027;BME280;29696;55.698;37.460;2023-04-08T07:59:31;100654.56;;;22.20;18.70
44027;BME280;29696;55.698;37.460;2023-04-08T08:01:57;100654.19;;;21.48;18.92
44027;BME280;29696;55.698;37.460;2023-04-08T08:04:23;100649.31;;;22.04;18.95
44027;BME280;29696;55.698;37.460;2023-04-08T08:06:51;100652.22;;;22.47;18.84
44027;BME280;29696;55.698;37.460;2023-04-08T08:09:17;100658.88;;;22.66;18.64
44027;BME280;29696;55.698;37.460;2023-04-08T08:11:43;100642.84;;;22.94;18.26
44027;BME280;29696;55.698;37.460;2023-04-08T08:14:10;100645.84;;;23.20;18.00
44027;BME280;29696;55.698;37.460;2023-04-08T08:16:38;100644.69;;;23.30;17.94
44027;BME280;29696;55.698;37.460;2023-04-08T08:19:05;100648.44;;;22.92;17.96
44027;BME280;29696;55.698;37.460;2023-04-08T08:21:32;100643.06;;;21.51;19.09
44027;BME280;29696;55.698;37.460;2023-04-08T08:24:01;100641.28;;;20.58;20.19
44027;BME280;29696;55.698;37.460;2023-04-08T08:26:27;100667.19;;;19.11;21.58
44027;BME280;29696;55.698;37.460;2023-04-08T08:28:54;100651.94;;;17.75;23.06
44027;BME280;29696;55.698;37.460;2023-04-08T08:31:20;100638.13;;;16.90;24.24
44027;BME280;29696;55.698;37.460;2023-04-08T08:33:46;100643.19;;;16.01;25.39
44027;BME280;29696;55.698;37.460;2023-04-08T08:36:13;100644.47;;;15.28;26.28
44027;BME280;29696;55.698;37.460;2023-04-08T08:38:39;100642.19;;;14.85;26.75
44027;BME280;29696;55.698;37.460;2023-04-08T08:41:06;100638.63;;;14.55;27.52
44027;BME280;29696;55.698;37.460;2023-04-08T08:43:32;100624.06;;;14.59;28.49
44027;BME280;29696;55.698;37.460;2023-04-08T08:45:59;100639.19;;;14.59;27.62
44027;BME280;29696;55.698;37.460;2023-04-08T08:48:25;100632.44;;;13.93;28.70
44027;BME280;29696;55.698;37.460;2023-04-08T08:50:52;100629.25;;;13.37;29.58
44027;BME280;29696;55.698;37.460;2023-04-08T08:53:18;100631.19;;;12.91;30.37
44027;BME280;29696;55.698;37.460;2023-04-08T08:55:45;100637.78;;;12.53;31.15
44027;BME280;29696;55.698;37.460;2023-04-08T08:58:12;100627.44;;;12.28;31.53
44027;BME280;29696;55.698;37.460;2023-04-08T09:00:40;100630.31;;;12.25;31.96
44027;BME280;29696;55.698;37.460;2023-04-08T09:03:26;100630.28;;;12.59;31.42
44027;BME280;29696;55.698;37.460;2023-04-08T09:06:00;100630.78;;;12.75;31.57
44027;BME280;29696;55.698;37.460;2023-04-08T09:08:32;100625.06;;;12.79;31.64
44027;BME280;29696;55.698;37.460;2023-04-08T09:11:34;100621.16;;;13.06;30.95
44027;BME280;29696;55.698;37.460;2023-04-08T09:14:01;100614.38;;;12.70;30.87
44027;BME280;29696;55.698;37.460;2023-04-08T09:16:29;100635.09;;;12.65;31.24
44027;BME280;29696;55.698;37.460;2023-04-08T09:19:07;100624.66;;;12.52;30.50
44027;BME280;29696;55.698;37.460;2023-04-08T09:21:34;100639.47;;;11.98;30.04
44027;BME280;29696;55.698;37.460;2023-04-08T09:24:00;100633.44;;;11.85;31.32
44027;BME280;29696;55.698;37.460;2023-04-08T09:26:27;100637.59;;;11.76;31.14
44027;BME280;29696;55.698;37.460;2023-04-08T09:29:04;100639.47;;;11.63;31.16
44027;BME280;29696;55.698;37.460;2023-04-08T09:31:36;100624.00;;;11.34;31.74
44027;BME280;29696;55.698;37.460;2023-04-08T09:34:11;100628.03;;;11.27;32.54
44027;BME280;29696;55.698;37.460;2023-04-08T09:36:37;100620.84;;;11.29;32.39
44027;BME280;29696;55.698;37.460;2023-04-08T09:39:04;100620.53;;;11.45;32.41
44027;BME280;29696;55.698;37.460;2023-04-08T09:41:33;100617.44;;;11.62;31.84
44027;BME280;29696;55.698;37.460;2023-04-08T09:44:03;100635.75;;;11.65;31.75
44027;BME280;29696;55.698;37.460;2023-04-08T09:47:09;100616.88;;;11.70;31.55
44027;BME280;29696;55.698;37.460;2023-04-08T09:49:45;100629.66;;;11.41;31.83
44027;BME280;29696;55.698;37.460;2023-04-08T09:52:33;100625.94;;;11.43;32.34
44027;BME280;29696;55.698;37.460;2023-04-08T09:55:08;100617.00;;;11.33;32.82
44027;BME280;29696;55.698;37.460;2023-04-08T09:57:57;100618.72;;;11.46;32.86
44027;BME280;29696;55.698;37.460;2023-04-08T10:00:32;100615.00;;;11.48;32.79
44027;BME280;29696;55.698;37.460;2023-04-08T10:03:33;100614.34;;;11.69;31.90
44027;BME280;29696;55.698;37.460;2023-04-08T10:06:01;100609.88;;;11.58;32.46
44027;BME280;29696;55.698;37.460;2023-04-08T10:08:29;100609.88;;;11.69;32.63
44027;BME280;29696;55.698;37.460;2023-04-08T10:10:56;100602.19;;;11.77;32.28
44027;BME280;29696;55.698;37.460;2023-04-08T10:13:23;100618.50;;;11.95;32.18
44027;BME280;29696;55.698;37.460;2023-04-08T10:16:17;100628.75;;;12.00;31.68
44027;BME280;29696;55.698;37.460;2023-04-08T10:18:43;100609.41;;;11.64;32.85
44027;BME280;29696;55.698;37.460;2023-04-08T10:21:35;100605.69;;;11.78;32.82
44027;BME280;29696;55.698;37.460;2023-04-08T10:24:09;100610.59;;;11.60;32.84
44027;BME280;29696;55.698;37.460;2023-04-08T10:26:41;100602.88;;;11.57;32.58
44027;BME280;29696;55.698;37.460;2023-04-08T10:29:37;100597.72;;;11.66;32.76
44027;BME280;29696;55.698;37.460;2023-04-08T10:32:03;100617.41;;;11.51;32.65
44027;BME280;29696;55.698;37.460;2023-04-08T10:34:30;100595.06;;;11.55;32.62
44027;BME280;29696;55.698;37.460;2023-04-08T10:36:56;100594.94;;;11.57;32.54
44027;BME280;29696;55.698;37.460;2023-04-08T10:39:24;100596.03;;;11.65;32.98
44027;BME280;29696;55.698;37.460;2023-04-08T10:41:52;100600.28;;;11.79;31.82
44027;BME280;29696;55.698;37.460;2023-04-08T10:44:23;100597.78;;;11.89;32.31
44027;BME280;29696;55.698;37.460;2023-04-08T10:46:50;100603.00;;;11.91;32.14
44027;BME280;29696;55.698;37.460;2023-04-08T10:49:17;100603.63;;;11.81;32.57
44027;BME280;29696;55.698;37.460;2023-04-08T10:51:44;100585.56;;;11.75;31.81
44027;BME280;29696;55.698;37.460;2023-04-08T10:54:13;100592.56;;;11.76;32.67
44027;BME280;29696;55.698;37.460;2023-04-08T10:57:06;100583.47;;;11.92;32.44
44027;BME280;29696;55.698;37.460;2023-04-08T10:59:32;100579.09;;;11.68;33.34
44027;BME280;29696;55.698;37.460;2023-04-08T11:01:59;100571.41;;;11.76;33.33
44027;BME280;29696;55.698;37.460;2023-04-08T11:04:26;100570.56;;;11.87;33.15
44027;BME280;29696;55.698;37.460;2023-04-08T11:06:52;100576.38;;;11.92;33.13
44027;BME280;29696;55.698;37.460;2023-04-08T11:09:18;100559.88;;;12.00;33.46
44027;BME280;29696;55.698;37.460;2023-04-08T11:11:45;100558.63;;;12.26;33.88
44027;BME280;29696;55.698;37.460;2023-04-08T11:14:12;100558.53;;;12.39;32.77
44027;BME280;29696;55.698;37.460;2023-04-08T11:16:39;100563.91;;;12.49;33.20
44027;BME280;29696;55.698;37.460;2023-04-08T11:19:06;100561.03;;;12.41;33.06
44027;BME280;29696;55.698;37.460;2023-04-08T11:21:36;100551.66;;;12.48;33.17
44027;BME280;29696;55.698;37.460;2023-04-08T11:24:09;100550.66;;;12.60;33.19
44027;BME280;29696;55.698;37.460;2023-04-08T11:26:37;100543.31;;;12.52;32.35
44027;BME280;29696;55.698;37.460;2023-04-08T11:29:04;100545.69;;;12.55;32.63
44027;BME280;29696;55.698;37.460;2023-04-08T11:31:31;100543.19;;;12.54;32.87
44027;BME280;29696;55.698;37.460;2023-04-08T11:33:58;100567.31;;;12.51;32.30
44027;BME280;29696;55.698;37.460;2023-04-08T11:36:24;100545.25;;;12.50;33.03
44027;BME280;29696;55.698;37.460;2023-04-08T11:38:53;100547.25;;;12.58;32.00
44027;BME280;29696;55.698;37.460;2023-04-08T11:41:20;100548.13;;;12.47;31.98
44027;BME280;29696;55.698;37.460;2023-04-08T11:43:52;100538.38;;;12.48;31.75
44027;BME280;29696;55.698;37.460;2023-04-08T11:46:18;100535.63;;;12.38;31.93
44027;BME280;29696;55.698;37.460;2023-04-08T11:49:04;100535.34;;;12.52;32.26
44027;BME280;29696;55.698;37.460;2023-04-08T11:51:32;100537.53;;;12.47;32.48
44027;BME280;29696;55.698;37.460;2023-04-08T11:54:29;100532.44;;;12.55;32.29
44027;BME280;29696;55.698;37.460;2023-04-08T11:56:55;100530.69;;;12.45;32.86
44027;BME280;29696;55.698;37.460;2023-04-08T11:59:26;100528.47;;;12.61;32.59
44027;BME280;29696;55.698;37.460;2023-04-08T12:01:52;100520.75;;;12.58;32.55
44027;BME280;29696;55.698;37.460;2023-04-08T12:04:18;100529.44;;;12.60;32.25
44027;BME280;29696;55.698;37.460;2023-04-08T12:06:45;100520.84;;;12.68;32.58
44027;BME280;29696;55.698;37.460;2023-04-08T12:09:12;100515.56;;;12.89;33.09
44027;BME280;29696;55.698;37.460;2023-04-08T12:11:39;100518.63;;;13.05;33.27
44027;BME280;29696;55.698;37.460;2023-04-08T12:14:05;100525.88;;;13.03;32.55
44027;BME280;29696;55.698;37.460;2023-04-08T12:16:32;100523.16;;;12.93;32.53
44027;BME280;29696;55.698;37.460;2023-04-08T12:18:58;100512.00;;;12.78;32.87
44027;BME280;29696;55.698;37.460;2023-04-08T12:21:24;100515.63;;;12.77;32.85
44027;BME280;29696;55.698;37.460;2023-04-08T12:23:52;100524.28;;;12.79;32.92
44027;BME280;29696;55.698;37.460;2023-04-08T12:26:19;100509.81;;;12.84;32.70
44027;BME280;29696;55.698;37.460;2023-04-08T12:28:45;100518.63;;;12.84;32.90
44027;BME280;29696;55.698;37.460;2023-04-08T12:31:12;100504.63;;;12.82;32.58
44027;BME280;29696;55.698;37.460;2023-04-08T12:33:38;100500.63;;;12.88;32.67
44027;BME280;29696;55.698;37.460;2023-04-08T12:36:04;100508.59;;;12.88;32.60
44027;BME280;29696;55.698;37.460;2023-04-08T12:38:31;100500.88;;;12.85;32.85
44027;BME280;29696;55.698;37.460;2023-04-08T12:40:58;100495.31;;;12.88;32.59
44027;BME280;29696;55.698;37.460;2023-04-08T12:43:24;100492.09;;;12.84;32.98
44027;BME280;29696;55.698;37.460;2023-04-08T12:45:51;100494.50;;;12.87;33.16
44027;BME280;29696;55.698;37.460;2023-04-08T12:48:17;100493.50;;;12.88;33.07
44027;BME280;29696;55.698;37.460;2023-04-08T12:50:44;100483.47;;;12.92;33.06
44027;BME280;29696;55.698;37.460;2023-04-08T12:53:11;100479.38;;;12.99;33.34
44027;BME280;29696;55.698;37.460;2023-04-08T12:55:38;100484.66;;;12.99;32.92